sensor_id;sensor_type;location;lat;lon;timestamp;P1;durP1;ratioP1;P2;durP2;ratioP2
23496;SDS011;11925;48.122;11.560;2023-11-21T00:00:11;3.83;;;0.90;;
23496;SDS011;11925;48.122;11.560;2023-11-21T00:02:40;3.40;;;0.70;;
23496;SDS011;11925;48.122;11.560;2023-11-21T00:05:09;3.67;;;0.85;;
23496;SDS011;11925;48.122;11.560;2023-11-21T00:07:39;2.55;;;0.80;;
23496;SDS011;11925;48.122;11.560;2023-11-21T00:10:08;3.75;;;0.88;;
23496;SDS011;11925;48.122;11.560;2023-11-21T00:12:37;3.72;;;0.80;;
23496;SDS011;11925;48.122;11.560;2023-11-21T00:15:09;7.22;;;1.15;;
23496;SDS011;11925;48.122;11.560;2023-11-21T00:17:40;5.75;;;0.80;;
23496;SDS011;11925;48.122;11.560;2023-11-21T00:20:09;3.05;;;0.73;;
23496;SDS011;11925;48.122;11.560;2023-11-21T00:22:40;4.93;;;1.08;;
23496;SDS011;11925;48.122;11.560;2023-11-21T00:25:09;4.70;;;0.80;;
23496;SDS011;11925;48.122;11.560;2023-11-21T00:27:38;3.35;;;0.73;;
23496;SDS011;11925;48.122;11.560;2023-11-21T00:30:07;4.28;;;0.70;;
23496;SDS011;11925;48.122;11.560;2023-11-21T00:32:36;3.30;;;0.68;;
23496;SDS011;11925;48.122;11.560;2023-11-21T00:35:07;3.08;;;0.85;;
23496;SDS011;11925;48.122;11.560;2023-11-21T00:37:35;4.13;;;0.80;;
23496;SDS011;11925;48.122;11.560;2023-11-21T00:40:06;3.60;;;0.70;;
23496;SDS011;11925;48.122;11.560;2023-11-21T00:42:36;2.72;;;0.55;;
23496;SDS011;11925;48.122;11.560;2023-11-21T00:45:05;2.53;;;0.60;;
23496;SDS011;11925;48.122;11.560;2023-11-21T00:47:35;3.33;;;1.00;;
23496;SDS011;11925;48.122;11.560;2023-11-21T00:50:04;5.75;;;0.93;;
23496;SDS011;11925;48.122;11.560;2023-11-21T00:52:35;3.85;;;1.23;;
23496;SDS011;11925;48.122;11.560;2023-11-21T00:55:04;2.85;;;0.70;;
23496;SDS011;11925;48.122;11.560;2023-11-21T00:57:34;4.97;;;0.80;;
23496;SDS011;11925;48.122;11.560;2023-11-21T01:00:04;2.60;;;0.60;;
23496;SDS011;11925;48.122;11.560;2023-11-21T01:02:36;4.60;;;0.73;;
23496;SDS011;11925;48.122;11.560;2023-11-21T01:05:04;2.65;;;0.60;;
23496;SDS011;11925;48.122;11.560;2023-11-21T01:07:36;3.55;;;0.68;;
23496;SDS011;11925;48.122;11.560;2023-11-21T01:10:04;3.05;;;0.80;;
23496;SDS011;11925;48.122;11.560;2023-11-21T01:12:34;1.55;;;0.50;;
23496;SDS011;11925;48.122;11.560;2023-11-21T01:15:03;4.60;;;0.70;;
23496;SDS011;11925;48.122;11.560;2023-11-21T01:17:33;3.63;;;0.60;;
23496;SDS011;11925;48.122;11.560;2023-11-21T01:20:03;4.50;;;0.70;;
23496;SDS011;11925;48.122;11.560;2023-11-21T01:22:40;3.25;;;0.68;;
23496;SDS011;11925;48.122;11.560;2023-11-21T01:25:10;3.90;;;0.70;;
23496;SDS011;11925;48.122;11.560;2023-11-21T01:27:41;3.92;;;0.65;;
23496;SDS011;11925;48.122;11.560;2023-11-21T01:30:10;2.78;;;0.60;;
23496;SDS011;11925;48.122;11.560;2023-11-21T01:32:39;3.33;;;0.60;;
23496;SDS011;11925;48.122;11.560;2023-11-21T01:35:10;1.83;;;0.80;;
23496;SDS011;11925;48.122;11.560;2023-11-21T01:37:40;3.92;;;0.60;;
23496;SDS011;11925;48.122;11.560;2023-11-21T01:40:09;3.22;;;0.90;;
23496;SDS011;11925;48.122;11.560;2023-11-21T01:42:41;1.13;;;0.50;;
23496;SDS011;11925;48.122;11.560;2023-11-21T01:45:11;3.63;;;0.65;;
23496;SDS011;11925;48.122;11.560;2023-11-21T01:47:40;2.65;;;0.70;;
23496;SDS011;11925;48.122;11.560;2023-11-21T01:50:09;3.13;;;0.60;;
23496;SDS011;11925;48.122;11.560;2023-11-21T01:52:43;4.53;;;0.80;;
23496;SDS011;11925;48.122;11.560;2023-11-21T01:55:12;2.67;;;0.60;;
23496;SDS011;11925;48.122;11.560;2023-11-21T01:57:53;2.55;;;0.60;;
23496;SDS011;11925;48.122;11.560;2023-11-21T02:00:23;5.57;;;0.95;;
23496;SDS011;11925;48.122;11.560;2023-11-21T02:02:52;3.55;;;0.80;;
23496;SDS011;11925;48.122;11.560;2023-11-21T02:05:21;3.80;;;0.70;;
23496;SDS011;11925;48.122;11.560;2023-11-21T02:07:51;5.68;;;0.98;;
23496;SDS011;11925;48.122;11.560;2023-11-21T02:10:19;4.82;;;0.77;;
23496;SDS011;11925;48.122;11.560;2023-11-21T02:12:50;4.65;;;0.82;;
23496;SDS011;11925;48.122;11.560;2023-11-21T02:15:20;4.13;;;0.70;;
23496;SDS011;11925;48.122;11.560;2023-11-21T02:17:50;5.13;;;1.00;;
23496;SDS011;11925;48.122;11.560;2023-11-21T02:20:20;6.75;;;1.05;;
23496;SDS011;11925;48.122;11.560;2023-11-21T02:22:53;2.92;;;0.77;;
23496;SDS011;11925;48.122;11.560;2023-11-21T02:25:25;4.75;;;0.85;;
23496;SDS011;11925;48.122;11.560;2023-11-21T02:27:55;4.70;;;0.88;;
23496;SDS011;11925;48.122;11.560;2023-11-21T02:30:24;5.60;;;1.80;;
23496;SDS011;11925;48.122;11.560;2023-11-21T02:32:54;4.10;;;0.77;;
23496;SDS011;11925;48.122;11.560;2023-11-21T02:35:25;4.38;;;0.90;;
23496;SDS011;11925;48.122;11.560;2023-11-21T02:37:55;3.85;;;0.70;;
23496;SDS011;11925;48.122;11.560;2023-11-21T02:40:24;3.88;;;0.68;;
23496;SDS011;11925;48.122;11.560;2023-11-21T02:42:53;2.85;;;0.70;;
23496;SDS011;11925;48.122;11.560;2023-11-21T02:45:26;3.95;;;0.77;;
23496;SDS011;11925;48.122;11.560;2023-11-21T02:47:54;3.97;;;0.88;;
23496;SDS011;11925;48.122;11.560;2023-11-21T02:50:25;4.45;;;0.82;;
23496;SDS011;11925;48.122;11.560;2023-11-21T02:52:55;3.08;;;0.60;;
23496;SDS011;11925;48.122;11.560;2023-11-21T02:55:27;4.07;;;0.70;;
23496;SDS011;11925;48.122;11.560;2023-11-21T02:57:55;4.15;;;1.00;;
23496;SDS011;11925;48.122;11.560;2023-11-21T03:00:24;3.65;;;0.63;;
23496;SDS011;11925;48.122;11.560;2023-11-21T03:02:54;3.47;;;0.70;;
23496;SDS011;11925;48.122;11.560;2023-11-21T03:05:25;2.30;;;0.75;;
23496;SDS011;11925;48.122;11.560;2023-11-21T03:07:57;3.42;;;0.57;;
23496;SDS011;11925;48.122;11.560;2023-11-21T03:10:25;3.83;;;0.80;;
23496;SDS011;11925;48.122;11.560;2023-11-21T03:12:54;2.85;;;0.77;;
23496;SDS011;11925;48.122;11.560;2023-11-21T03:15:24;2.85;;;0.60;;
23496;SDS011;11925;48.122;11.560;2023-11-21T03:17:52;2.92;;;0.60;;
23496;SDS011;11925;48.122;11.560;2023-11-21T03:20:21;3.03;;;0.70;;
23496;SDS011;11925;48.122;11.560;2023-11-21T03:22:50;5.57;;;1.15;;
23496;SDS011;11925;48.122;11.560;2023-11-21T03:25:20;2.97;;;0.50;;
23496;SDS011;11925;48.122;11.560;2023-11-21T03:27:50;3.88;;;0.70;;
23496;SDS011;11925;48.122;11.560;2023-11-21T03:30:19;3.97;;;1.23;;
23496;SDS011;11925;48.122;11.560;2023-11-21T03:32:48;2.33;;;0.60;;
23496;SDS011;11925;48.122;11.560;2023-11-21T03:35:17;3.13;;;0.70;;
23496;SDS011;11925;48.122;11.560;2023-11-21T03:37:47;4.75;;;0.80;;
23496;SDS011;11925;48.122;11.560;2023-11-21T03:40:16;2.40;;;0.52;;
23496;SDS011;11925;48.122;11.560;2023-11-21T03:42:46;4.45;;;0.60;;
23496;SDS011;11925;48.122;11.560;2023-11-21T03:45:15;3.50;;;0.60;;
23496;SDS011;11925;48.122;11.560;2023-11-21T03:47:43;1.77;;;0.50;;
23496;SDS011;11925;48.122;11.560;2023-11-21T03:50:13;1.85;;;0.40;;
23496;SDS011;11925;48.122;11.560;2023-11-21T03:52:43;0.85;;;0.50;;
23496;SDS011;11925;48.122;11.560;2023-11-21T03:55:12;1.20;;;0.40;;
23496;SDS011;11925;48.122;11.560;2023-11-21T03:57:42;1.92;;;0.50;;
23496;SDS011;11925;48.122;11.560;2023-11-21T04:00:12;1.80;;;0.40;;
23496;SDS011;11925;48.122;11.560;2023-11-21T04:02:41;2.73;;;0.40;;
23496;SDS011;11925;48.122;11.560;2023-11-21T04:05:10;3.45;;;0.65;;
23496;SDS011;11925;48.122;11.560;2023-11-21T04:07:38;2.72;;;0.50;;
23496;SDS011;11925;48.122;11.560;2023-11-21T04:10:07;3.13;;;0.60;;
23496;SDS011;11925;48.122;11.560;2023-11-21T04:15:07;3.05;;;0.50;;
23496;SDS011;11925;48.122;11.560;2023-11-21T04:17:38;1.58;;;0.60;;
23496;SDS011;11925;48.122;11.560;2023-11-21T04:20:07;1.38;;;0.38;;
23496;SDS011;11925;48.122;11.560;2023-11-21T04:22:37;2.47;;;0.60;;
23496;SDS011;11925;48.122;11.560;2023-11-21T04:25:10;2.20;;;0.40;;
23496;SDS011;11925;48.122;11.560;2023-11-21T04:27:39;1.27;;;0.50;;
23496;SDS011;11925;48.122;11.560;2023-11-21T04:30:10;2.93;;;0.63;;
23496;SDS011;11925;48.122;11.560;2023-11-21T04:32:40;2.92;;;0.50;;
23496;SDS011;11925;48.122;11.560;2023-11-21T04:35:09;1.58;;;0.82;;
23496;SDS011;11925;48.122;11.560;2023-11-21T04:37:38;2.08;;;0.40;;
23496;SDS011;11925;48.122;11.560;2023-11-21T04:40:07;3.58;;;0.40;;
23496;SDS011;11925;48.122;11.560;2023-11-21T04:42:36;1.67;;;0.30;;
23496;SDS011;11925;48.122;11.560;2023-11-21T04:45:05;2.67;;;0.60;;
23496;SDS011;11925;48.122;11.560;2023-11-21T04:50:06;3.45;;;0.95;;
23496;SDS011;11925;48.122;11.560;2023-11-21T04:52:35;3.40;;;0.70;;
23496;SDS011;11925;48.122;11.560;2023-11-21T04:55:04;1.60;;;0.40;;
23496;SDS011;11925;48.122;11.560;2023-11-21T04:57:36;3.25;;;0.40;;
23496;SDS011;11925;48.122;11.560;2023-11-21T05:00:06;1.67;;;0.68;;
23496;SDS011;11925;48.122;11.560;2023-11-21T05:02:35;1.92;;;0.40;;
23496;SDS011;11925;48.122;11.560;2023-11-21T05:05:07;4.95;;;0.45;;
23496;SDS011;11925;48.122;11.560;2023-11-21T05:07:37;2.33;;;0.60;;
23496;SDS011;11925;48.122;11.560;2023-11-21T05:10:06;3.80;;;0.85;;
23496;SDS011;11925;48.122;11.560;2023-11-21T05:12:36;2.80;;;0.50;;
23496;SDS011;11925;48.122;11.560;2023-11-21T05:15:05;0.65;;;0.30;;
23496;SDS011;11925;48.122;11.560;2023-11-21T05:17:36;2.13;;;0.57;;
23496;SDS011;11925;48.122;11.560;2023-11-21T05:20:08;2.40;;;0.40;;
23496;SDS011;11925;48.122;11.560;2023-11-21T05:25:06;2.47;;;0.40;;
23496;SDS011;11925;48.122;11.560;2023-11-21T05:27:35;2.08;;;0.65;;
23496;SDS011;11925;48.122;11.560;2023-11-21T05:30:04;2.63;;;0.55;;
23496;SDS011;11925;48.122;11.560;2023-11-21T05:32:35;2.03;;;0.50;;
23496;SDS011;11925;48.122;11.560;2023-11-21T05:35:04;1.67;;;0.43;;
23496;SDS011;11925;48.122;11.560;2023-11-21T05:37:37;4.18;;;0.80;;
23496;SDS011;11925;48.122;11.560;2023-11-21T05:40:06;2.90;;;0.80;;
23496;SDS011;11925;48.122;11.560;2023-11-21T05:42:36;1.73;;;0.60;;
23496;SDS011;11925;48.122;11.560;2023-11-21T05:45:05;2.22;;;0.73;;
23496;SDS011;11925;48.122;11.560;2023-11-21T05:47:37;3.40;;;0.80;;
23496;SDS011;11925;48.122;11.560;2023-11-21T05:50:07;5.80;;;1.13;;
23496;SDS011;11925;48.122;11.560;2023-11-21T05:52:40;6.30;;;1.20;;
23496;SDS011;11925;48.122;11.560;2023-11-21T05:55:09;3.08;;;1.00;;
23496;SDS011;11925;48.122;11.560;2023-11-21T05:57:38;4.47;;;1.50;;
23496;SDS011;11925;48.122;11.560;2023-11-21T06:00:07;7.22;;;1.58;;
23496;SDS011;11925;48.122;11.560;2023-11-21T06:02:44;4.55;;;0.95;;
23496;SDS011;11925;48.122;11.560;2023-11-21T06:05:13;2.58;;;1.10;;
23496;SDS011;11925;48.122;11.560;2023-11-21T06:07:43;3.35;;;1.27;;
23496;SDS011;11925;48.122;11.560;2023-11-21T06:10:12;5.15;;;1.70;;
23496;SDS011;11925;48.122;11.560;2023-11-21T06:12:41;2.63;;;0.77;;
23496;SDS011;11925;48.122;11.560;2023-11-21T06:15:10;3.58;;;1.10;;
23496;SDS011;11925;48.122;11.560;2023-11-21T06:17:41;3.10;;;1.00;;
23496;SDS011;11925;48.122;11.560;2023-11-21T06:20:11;3.03;;;1.00;;
23496;SDS011;11925;48.122;11.560;2023-11-21T06:22:42;4.03;;;0.93;;
23496;SDS011;11925;48.122;11.560;2023-11-21T06:25:12;5.10;;;1.27;;
23496;SDS011;11925;48.122;11.560;2023-11-21T06:27:41;2.63;;;1.00;;
23496;SDS011;11925;48.122;11.560;2023-11-21T06:30:11;3.83;;;0.73;;
23496;SDS011;11925;48.122;11.560;2023-11-21T06:32:41;1.88;;;0.70;;
23496;SDS011;11925;48.122;11.560;2023-11-21T06:35:13;2.67;;;0.70;;
23496;SDS011;11925;48.122;11.560;2023-11-21T06:37:43;5.82;;;1.15;;
23496;SDS011;11925;48.122;11.560;2023-11-21T06:40:18;4.00;;;0.70;;
23496;SDS011;11925;48.122;11.560;2023-11-21T06:42:47;2.53;;;0.90;;
23496;SDS011;11925;48.122;11.560;2023-11-21T06:45:17;2.67;;;0.90;;
23496;SDS011;11925;48.122;11.560;2023-11-21T06:47:47;2.83;;;0.70;;
23496;SDS011;11925;48.122;11.560;2023-11-21T06:50:16;2.25;;;0.85;;
23496;SDS011;11925;48.122;11.560;2023-11-21T06:52:45;2.85;;;0.82;;
23496;SDS011;11925;48.122;11.560;2023-11-21T06:55:15;2.58;;;0.60;;
23496;SDS011;11925;48.122;11.560;2023-11-21T06:57:45;2.20;;;0.52;;
23496;SDS011;11925;48.122;11.560;2023-11-21T07:00:15;3.88;;;0.77;;
23496;SDS011;11925;48.122;11.560;2023-11-21T07:02:44;2.38;;;0.70;;
23496;SDS011;11925;48.122;11.560;2023-11-21T07:05:16;1.80;;;0.52;;
23496;SDS011;11925;48.122;11.560;2023-11-21T07:07:48;3.80;;;0.80;;
23496;SDS011;11925;48.122;11.560;2023-11-21T07:10:17;3.63;;;0.55;;
23496;SDS011;11925;48.122;11.560;2023-11-21T07:12:47;2.08;;;0.70;;
23496;SDS011;11925;48.122;11.560;2023-11-21T07:17:47;3.75;;;0.60;;
23496;SDS011;11925;48.122;11.560;2023-11-21T07:20:16;2.10;;;0.50;;
23496;SDS011;11925;48.122;11.560;2023-11-21T07:22:45;5.05;;;2.00;;
23496;SDS011;11925;48.122;11.560;2023-11-21T07:25:14;3.10;;;1.15;;
23496;SDS011;11925;48.122;11.560;2023-11-21T07:27:42;1.55;;;0.70;;
23496;SDS011;11925;48.122;11.560;2023-11-21T07:30:13;2.22;;;0.73;;
23496;SDS011;11925;48.122;11.560;2023-11-21T07:32:42;1.08;;;0.57;;
23496;SDS011;11925;48.122;11.560;2023-11-21T07:35:13;2.65;;;0.60;;
23496;SDS011;11925;48.122;11.560;2023-11-21T07:37:42;1.77;;;0.65;;
23496;SDS011;11925;48.122;11.560;2023-11-21T07:40:11;2.35;;;0.60;;
23496;SDS011;11925;48.122;11.560;2023-11-21T07:42:40;3.13;;;0.60;;
23496;SDS011;11925;48.122;11.560;2023-11-21T07:45:10;1.83;;;0.50;;
23496;SDS011;11925;48.122;11.560;2023-11-21T07:47:40;1.85;;;0.70;;
23496;SDS011;11925;48.122;11.560;2023-11-21T07:50:09;1.70;;;0.75;;
23496;SDS011;11925;48.122;11.560;2023-11-21T07:52:40;2.83;;;0.68;;
23496;SDS011;11925;48.122;11.560;2023-11-21T07:55:08;2.40;;;0.57;;
23496;SDS011;11925;48.122;11.560;2023-11-21T07:57:38;0.85;;;0.43;;
23496;SDS011;11925;48.122;11.560;2023-11-21T08:00:07;2.45;;;0.50;;
23496;SDS011;11925;48.122;11.560;2023-11-21T08:02:39;1.83;;;0.50;;
23496;SDS011;11925;48.122;11.560;2023-11-21T08:05:11;1.55;;;0.60;;
23496;SDS011;11925;48.122;11.560;2023-11-21T08:07:50;5.27;;;0.80;;
23496;SDS011;11925;48.122;11.560;2023-11-21T08:10:19;4.88;;;0.70;;
23496;SDS011;11925;48.122;11.560;2023-11-21T08:12:48;1.30;;;0.45;;
23496;SDS011;11925;48.122;11.560;2023-11-21T08:15:18;2.20;;;0.50;;
23496;SDS011;11925;48.122;11.560;2023-11-21T08:17:46;2.13;;;0.55;;
23496;SDS011;11925;48.122;11.560;2023-11-21T08:20:16;1.17;;;0.50;;
23496;SDS011;11925;48.122;11.560;2023-11-21T08:22:45;2.10;;;0.40;;
23496;SDS011;11925;48.122;11.560;2023-11-21T08:25:15;2.35;;;0.40;;
23496;SDS011;11925;48.122;11.560;2023-11-21T08:30:15;1.40;;;0.70;;
23496;SDS011;11925;48.122;11.560;2023-11-21T08:32:46;2.10;;;0.43;;
23496;SDS011;11925;48.122;11.560;2023-11-21T08:35:14;1.77;;;0.75;;
23496;SDS011;11925;48.122;11.560;2023-11-21T08:37:45;2.22;;;0.57;;
23496;SDS011;11925;48.122;11.560;2023-11-21T08:40:13;1.80;;;0.60;;
23496;SDS011;11925;48.122;11.560;2023-11-21T08:42:44;2.92;;;0.60;;
23496;SDS011;11925;48.122;11.560;2023-11-21T08:45:13;0.85;;;0.40;;
23496;SDS011;11925;48.122;11.560;2023-11-21T08:47:44;1.48;;;0.52;;
23496;SDS011;11925;48.122;11.560;2023-11-21T08:50:13;1.38;;;0.82;;
23496;SDS011;11925;48.122;11.560;2023-11-21T08:52:46;1.40;;;0.50;;
23496;SDS011;11925;48.122;11.560;2023-11-21T08:55:14;1.95;;;1.15;;
23496;SDS011;11925;48.122;11.560;2023-11-21T08:57:44;2.88;;;0.50;;
23496;SDS011;11925;48.122;11.560;2023-11-21T09:00:14;2.35;;;0.70;;
23496;SDS011;11925;48.122;11.560;2023-11-21T09:02:44;2.65;;;0.60;;
23496;SDS011;11925;48.122;11.560;2023-11-21T09:05:14;1.73;;;0.63;;
23496;SDS011;11925;48.122;11.560;2023-11-21T09:07:43;1.95;;;0.40;;
23496;SDS011;11925;48.122;11.560;2023-11-21T09:10:14;2.33;;;0.50;;
23496;SDS011;11925;48.122;11.560;2023-11-21T09:12:42;2.33;;;0.52;;
23496;SDS011;11925;48.122;11.560;2023-11-21T09:15:11;1.77;;;0.45;;
23496;SDS011;11925;48.122;11.560;2023-11-21T09:17:41;2.15;;;0.40;;
23496;SDS011;11925;48.122;11.560;2023-11-21T09:20:11;5.72;;;0.60;;
23496;SDS011;11925;48.122;11.560;2023-11-21T09:22:41;3.17;;;0.68;;
23496;SDS011;11925;48.122;11.560;2023-11-21T09:25:11;4.07;;;0.63;;
23496;SDS011;11925;48.122;11.560;2023-11-21T09:27:41;2.92;;;0.70;;
23496;SDS011;11925;48.122;11.560;2023-11-21T09:30:11;3.55;;;0.65;;
23496;SDS011;11925;48.122;11.560;2023-11-21T09:32:41;2.60;;;0.57;;
23496;SDS011;11925;48.122;11.560;2023-11-21T09:35:12;2.55;;;0.77;;
23496;SDS011;11925;48.122;11.560;2023-11-21T09:37:42;5.75;;;2.33;;
23496;SDS011;11925;48.122;11.560;2023-11-21T09:40:15;4.20;;;1.70;;
23496;SDS011;11925;48.122;11.560;2023-11-21T09:42:52;6.95;;;2.15;;
23496;SDS011;11925;48.122;11.560;2023-11-21T09:45:25;5.60;;;2.40;;
23496;SDS011;11925;48.122;11.560;2023-11-21T09:47:53;4.82;;;2.20;;
23496;SDS011;11925;48.122;11.560;2023-11-21T09:50:23;6.90;;;1.95;;
23496;SDS011;11925;48.122;11.560;2023-11-21T09:52:57;4.50;;;1.45;;
23496;SDS011;11925;48.122;11.560;2023-11-21T09:55:27;7.63;;;1.75;;
23496;SDS011;11925;48.122;11.560;2023-11-21T09:57:59;245.15;;;118.18;;
23496;SDS011;11925;48.122;11.560;2023-11-21T10:00:28;280.98;;;139.82;;
23496;SDS011;11925;48.122;11.560;2023-11-21T10:03:00;251.38;;;121.85;;
23496;SDS011;11925;48.122;11.560;2023-11-21T10:05:29;452.88;;;156.43;;
23496;SDS011;11925;48.122;11.560;2023-11-21T10:08:01;279.00;;;108.55;;
23496;SDS011;11925;48.122;11.560;2023-11-21T10:10:30;160.82;;;56.47;;
23496;SDS011;11925;48.122;11.560;2023-11-21T10:13:03;110.82;;;42.28;;
23496;SDS011;11925;48.122;11.560;2023-11-21T10:15:34;52.65;;;22.10;;
23496;SDS011;11925;48.122;11.560;2023-11-21T10:18:03;36.72;;;12.77;;
23496;SDS011;11925;48.122;11.560;2023-11-21T10:20:32;16.63;;;7.28;;
23496;SDS011;11925;48.122;11.560;2023-11-21T10:23:01;10.20;;;4.50;;
23496;SDS011;11925;48.122;11.560;2023-11-21T10:25:30;7.75;;;2.60;;
23496;SDS011;11925;48.122;11.560;2023-11-21T10:27:59;4.28;;;1.67;;
23496;SDS011;11925;48.122;11.560;2023-11-21T10:30:36;2.85;;;1.10;;
23496;SDS011;11925;48.122;11.560;2023-11-21T10:33:07;1.92;;;0.90;;
23496;SDS011;11925;48.122;11.560;2023-11-21T10:35:39;3.50;;;1.00;;
23496;SDS011;11925;48.122;11.560;2023-11-21T10:38:13;1.67;;;0.60;;
23496;SDS011;11925;48.122;11.560;2023-11-21T10:40:42;2.30;;;0.60;;
23496;SDS011;11925;48.122;11.560;2023-11-21T10:43:13;1.73;;;0.57;;
23496;SDS011;11925;48.122;11.560;2023-11-21T10:45:44;1.02;;;0.50;;
23496;SDS011;11925;48.122;11.560;2023-11-21T10:48:13;1.77;;;0.50;;
23496;SDS011;11925;48.122;11.560;2023-11-21T10:50:43;1.75;;;0.60;;
23496;SDS011;11925;48.122;11.560;2023-11-21T10:53:12;1.52;;;0.70;;
23496;SDS011;11925;48.122;11.560;2023-11-21T10:55:42;2.08;;;0.82;;
23496;SDS011;11925;48.122;11.560;2023-11-21T10:58:13;2.30;;;0.70;;
23496;SDS011;11925;48.122;11.560;2023-11-21T11:00:42;3.30;;;0.75;;
23496;SDS011;11925;48.122;11.560;2023-11-21T11:03:13;3.05;;;0.70;;
23496;SDS011;11925;48.122;11.560;2023-11-21T11:05:43;2.92;;;0.70;;
23496;SDS011;11925;48.122;11.560;2023-11-21T11:08:20;1.88;;;0.60;;
23496;SDS011;11925;48.122;11.560;2023-11-21T11:10:54;1.90;;;0.50;;
23496;SDS011;11925;48.122;11.560;2023-11-21T11:13:25;2.20;;;0.68;;
23496;SDS011;11925;48.122;11.560;2023-11-21T11:15:57;3.25;;;0.70;;
23496;SDS011;11925;48.122;11.560;2023-11-21T11:18:28;3.15;;;0.93;;
23496;SDS011;11925;48.122;11.560;2023-11-21T11:20:58;3.22;;;0.82;;
23496;SDS011;11925;48.122;11.560;2023-11-21T11:23:38;1.73;;;0.70;;
23496;SDS011;11925;48.122;11.560;2023-11-21T11:26:20;1.55;;;0.60;;
23496;SDS011;11925;48.122;11.560;2023-11-21T11:29:02;2.67;;;1.13;;
23496;SDS011;11925;48.122;11.560;2023-11-21T11:31:39;2.10;;;1.00;;
23496;SDS011;11925;48.122;11.560;2023-11-21T11:34:19;2.35;;;0.88;;
23496;SDS011;11925;48.122;11.560;2023-11-21T11:36:54;7.03;;;3.25;;
23496;SDS011;11925;48.122;11.560;2023-11-21T11:39:29;3.80;;;1.73;;
23496;SDS011;11925;48.122;11.560;2023-11-21T11:41:58;3.72;;;1.70;;
23496;SDS011;11925;48.122;11.560;2023-11-21T11:44:46;3.78;;;1.77;;
23496;SDS011;11925;48.122;11.560;2023-11-21T11:47:26;2.63;;;1.10;;
23496;SDS011;11925;48.122;11.560;2023-11-21T11:50:02;4.15;;;1.13;;
23496;SDS011;11925;48.122;11.560;2023-11-21T11:52:38;3.78;;;1.00;;
23496;SDS011;11925;48.122;11.560;2023-11-21T11:55:08;3.08;;;1.05;;
23496;SDS011;11925;48.122;11.560;2023-11-21T11:57:37;2.47;;;1.05;;
23496;SDS011;11925;48.122;11.560;2023-11-21T12:00:10;4.68;;;1.17;;
23496;SDS011;11925;48.122;11.560;2023-11-21T12:02:45;4.72;;;1.10;;
23496;SDS011;11925;48.122;11.560;2023-11-21T12:07:45;2.63;;;0.80;;
23496;SDS011;11925;48.122;11.560;2023-11-21T12:10:16;3.10;;;0.98;;
23496;SDS011;11925;48.122;11.560;2023-11-21T12:12:46;2.75;;;0.70;;
23496;SDS011;11925;48.122;11.560;2023-11-21T12:15:15;3.22;;;0.80;;
23496;SDS011;11925;48.122;11.560;2023-11-21T12:17:44;1.35;;;0.70;;
23496;SDS011;11925;48.122;11.560;2023-11-21T12:20:17;2.85;;;0.60;;
23496;SDS011;11925;48.122;11.560;2023-11-21T12:22:47;1.73;;;0.70;;
23496;SDS011;11925;48.122;11.560;2023-11-21T12:25:16;1.90;;;0.63;;
23496;SDS011;11925;48.122;11.560;2023-11-21T12:27:46;1.30;;;0.70;;
23496;SDS011;11925;48.122;11.560;2023-11-21T12:30:17;1.83;;;0.63;;
23496;SDS011;11925;48.122;11.560;2023-11-21T12:32:49;1.65;;;0.68;;
23496;SDS011;11925;48.122;11.560;2023-11-21T12:35:20;1.80;;;0.70;;
23496;SDS011;11925;48.122;11.560;2023-11-21T12:37:51;4.03;;;0.65;;
23496;SDS011;11925;48.122;11.560;2023-11-21T12:40:23;1.70;;;0.63;;
23496;SDS011;11925;48.122;11.560;2023-11-21T12:42:52;2.55;;;0.60;;
23496;SDS011;11925;48.122;11.560;2023-11-21T12:45:22;2.75;;;1.15;;
23496;SDS011;11925;48.122;11.560;2023-11-21T12:47:55;1.55;;;0.68;;
23496;SDS011;11925;48.122;11.560;2023-11-21T12:50:27;2.05;;;0.60;;
23496;SDS011;11925;48.122;11.560;2023-11-21T12:52:58;1.38;;;0.50;;
23496;SDS011;11925;48.122;11.560;2023-11-21T12:55:29;2.07;;;0.73;;
23496;SDS011;11925;48.122;11.560;2023-11-21T12:58:00;2.42;;;0.60;;
23496;SDS011;11925;48.122;11.560;2023-11-21T13:00:39;1.85;;;0.50;;
23496;SDS011;11925;48.122;11.560;2023-11-21T13:03:11;2.45;;;0.50;;
23496;SDS011;11925;48.122;11.560;2023-11-21T13:05:45;2.35;;;0.60;;
23496;SDS011;11925;48.122;11.560;2023-11-21T13:08:18;1.33;;;0.38;;
23496;SDS011;11925;48.122;11.560;2023-11-21T13:10:49;1.23;;;0.47;;
23496;SDS011;11925;48.122;11.560;2023-11-21T13:13:18;1.27;;;0.43;;
23496;SDS011;11925;48.122;11.560;2023-11-21T13:15:50;1.33;;;0.45;;
23496;SDS011;11925;48.122;11.560;2023-11-21T13:20:53;0.80;;;0.40;;
23496;SDS011;11925;48.122;11.560;2023-11-21T13:23:23;1.00;;;0.35;;
23496;SDS011;11925;48.122;11.560;2023-11-21T13:25:52;0.73;;;0.30;;
23496;SDS011;11925;48.122;11.560;2023-11-21T13:28:30;2.28;;;0.40;;
23496;SDS011;11925;48.122;11.560;2023-11-21T13:31:00;1.10;;;0.50;;
23496;SDS011;11925;48.122;11.560;2023-11-21T13:33:38;1.35;;;0.50;;
23496;SDS011;11925;48.122;11.560;2023-11-21T13:36:09;0.55;;;0.25;;
23496;SDS011;11925;48.122;11.560;2023-11-21T13:38:40;1.48;;;0.45;;
23496;SDS011;11925;48.122;11.560;2023-11-21T13:41:10;1.05;;;0.40;;
23496;SDS011;11925;48.122;11.560;2023-11-21T13:43:41;0.55;;;0.40;;
23496;SDS011;11925;48.122;11.560;2023-11-21T13:46:17;1.65;;;0.80;;
23496;SDS011;11925;48.122;11.560;2023-11-21T13:48:50;1.48;;;0.47;;
23496;SDS011;11925;48.122;11.560;2023-11-21T13:51:23;2.88;;;0.40;;
23496;SDS011;11925;48.122;11.560;2023-11-21T13:54:03;1.23;;;0.60;;
23496;SDS011;11925;48.122;11.560;2023-11-21T13:56:36;1.55;;;0.73;;
23496;SDS011;11925;48.122;11.560;2023-11-21T13:59:06;1.20;;;0.45;;
23496;SDS011;11925;48.122;11.560;2023-11-21T14:01:45;2.03;;;0.50;;
23496;SDS011;11925;48.122;11.560;2023-11-21T14:04:24;2.20;;;0.60;;
23496;SDS011;11925;48.122;11.560;2023-11-21T14:07:13;0.80;;;0.40;;
23496;SDS011;11925;48.122;11.560;2023-11-21T14:09:52;1.17;;;0.40;;
23496;SDS011;11925;48.122;11.560;2023-11-21T14:12:22;83.38;;;46.65;;
23496;SDS011;11925;48.122;11.560;2023-11-21T14:14:51;196.65;;;104.18;;
23496;SDS011;11925;48.122;11.560;2023-11-21T14:17:21;250.02;;;138.85;;
23496;SDS011;11925;48.122;11.560;2023-11-21T14:19:52;248.13;;;119.68;;
23496;SDS011;11925;48.122;11.560;2023-11-21T14:22:22;143.15;;;72.60;;
23496;SDS011;11925;48.122;11.560;2023-11-21T14:24:52;98.78;;;47.92;;
23496;SDS011;11925;48.122;11.560;2023-11-21T14:27:25;61.95;;;32.55;;
23496;SDS011;11925;48.122;11.560;2023-11-21T14:29:53;157.50;;;81.43;;
23496;SDS011;11925;48.122;11.560;2023-11-21T14:32:24;338.65;;;174.20;;
23496;SDS011;11925;48.122;11.560;2023-11-21T14:34:54;353.85;;;186.07;;
23496;SDS011;11925;48.122;11.560;2023-11-21T14:37:23;275.60;;;140.27;;
23496;SDS011;11925;48.122;11.560;2023-11-21T14:39:52;195.50;;;98.57;;
23496;SDS011;11925;48.122;11.560;2023-11-21T14:42:21;148.80;;;71.38;;
23496;SDS011;11925;48.122;11.560;2023-11-21T14:44:52;80.38;;;41.00;;
23496;SDS011;11925;48.122;11.560;2023-11-21T14:47:26;48.97;;;23.63;;
23496;SDS011;11925;48.122;11.560;2023-11-21T14:49:56;29.08;;;14.45;;
23496;SDS011;11925;48.122;11.560;2023-11-21T14:52:26;18.52;;;9.90;;
23496;SDS011;11925;48.122;11.560;2023-11-21T14:55:02;13.60;;;6.50;;
23496;SDS011;11925;48.122;11.560;2023-11-21T14:57:45;9.88;;;4.78;;
23496;SDS011;11925;48.122;11.560;2023-11-21T15:03:02;10.50;;;4.60;;
23496;SDS011;11925;48.122;11.560;2023-11-21T15:05:34;8.32;;;4.22;;
23496;SDS011;11925;48.122;11.560;2023-11-21T15:08:02;8.55;;;3.50;;
23496;SDS011;11925;48.122;11.560;2023-11-21T15:10:48;3.80;;;1.85;;